sensor_id;sensor_type;location;lat;lon;timestamp;P1;durP1;ratioP1;P2;durP2;ratioP2
22030;SDS011;11179;52.106;21.024;2022-12-18T00:03:50;54.38;;;26.58;;
22030;SDS011;11179;52.106;21.024;2022-12-18T00:06:16;60.08;;;28.90;;
22030;SDS011;11179;52.106;21.024;2022-12-18T00:08:42;55.83;;;27.03;;
22030;SDS011;11179;52.106;21.024;2022-12-18T00:11:11;54.90;;;26.73;;
22030;SDS011;11179;52.106;21.024;2022-12-18T00:13:38;55.20;;;26.92;;
22030;SDS011;11179;52.106;21.024;2022-12-18T00:16:04;49.10;;;25.10;;
22030;SDS011;11179;52.106;21.024;2022-12-18T00:18:32;50.80;;;25.98;;
22030;SDS011;11179;52.106;21.024;2022-12-18T00:20:59;55.30;;;26.30;;
22030;SDS011;11179;52.106;21.024;2022-12-18T00:23:26;50.13;;;26.58;;
22030;SDS011;11179;52.106;21.024;2022-12-18T00:25:52;50.63;;;25.92;;
22030;SDS011;11179;52.106;21.024;2022-12-18T00:28:17;54.33;;;26.97;;
22030;SDS011;11179;52.106;21.024;2022-12-18T00:30:43;56.00;;;26.73;;
22030;SDS011;11179;52.106;21.024;2022-12-18T00:33:08;54.37;;;28.27;;
22030;SDS011;11179;52.106;21.024;2022-12-18T00:35:33;55.37;;;26.07;;
22030;SDS011;11179;52.106;21.024;2022-12-18T00:37:59;54.07;;;25.03;;
22030;SDS011;11179;52.106;21.024;2022-12-18T00:40:24;51.47;;;25.60;;
22030;SDS011;11179;52.106;21.024;2022-12-18T00:42:49;52.53;;;26.10;;
22030;SDS011;11179;52.106;21.024;2022-12-18T00:45:25;47.58;;;24.77;;
22030;SDS011;11179;52.106;21.024;2022-12-18T00:47:55;53.25;;;26.35;;
22030;SDS011;11179;52.106;21.024;2022-12-18T00:50:21;65.35;;;32.28;;
22030;SDS011;11179;52.106;21.024;2022-12-18T00:52:47;54.60;;;26.30;;
22030;SDS011;11179;52.106;21.024;2022-12-18T00:55:13;59.30;;;27.53;;
22030;SDS011;11179;52.106;21.024;2022-12-18T00:57:39;55.20;;;26.60;;
22030;SDS011;11179;52.106;21.024;2022-12-18T01:00:05;57.57;;;26.97;;
22030;SDS011;11179;52.106;21.024;2022-12-18T01:02:32;57.97;;;26.02;;
22030;SDS011;11179;52.106;21.024;2022-12-18T01:04:57;57.73;;;25.57;;
22030;SDS011;11179;52.106;21.024;2022-12-18T01:07:22;59.17;;;25.60;;
22030;SDS011;11179;52.106;21.024;2022-12-18T01:09:48;56.77;;;26.40;;
22030;SDS011;11179;52.106;21.024;2022-12-18T01:12:14;65.53;;;32.10;;
22030;SDS011;11179;52.106;21.024;2022-12-18T01:14:39;53.10;;;25.97;;
22030;SDS011;11179;52.106;21.024;2022-12-18T01:17:04;59.70;;;29.10;;
22030;SDS011;11179;52.106;21.024;2022-12-18T01:19:30;52.67;;;25.90;;
22030;SDS011;11179;52.106;21.024;2022-12-18T01:21:55;52.87;;;26.73;;
22030;SDS011;11179;52.106;21.024;2022-12-18T01:24:21;53.80;;;23.97;;
22030;SDS011;11179;52.106;21.024;2022-12-18T01:26:46;58.17;;;24.57;;
22030;SDS011;11179;52.106;21.024;2022-12-18T01:29:11;53.70;;;26.20;;
22030;SDS011;11179;52.106;21.024;2022-12-18T01:31:37;55.03;;;25.07;;
22030;SDS011;11179;52.106;21.024;2022-12-18T01:34:03;56.77;;;24.47;;
22030;SDS011;11179;52.106;21.024;2022-12-18T01:36:33;48.35;;;23.23;;
22030;SDS011;11179;52.106;21.024;2022-12-18T01:39:01;56.53;;;24.90;;
22030;SDS011;11179;52.106;21.024;2022-12-18T01:41:29;54.08;;;24.77;;
22030;SDS011;11179;52.106;21.024;2022-12-18T01:49:51;54.85;;;24.17;;
22030;SDS011;11179;52.106;21.024;2022-12-18T01:52:17;54.20;;;25.05;;
22030;SDS011;11179;52.106;21.024;2022-12-18T01:54:45;53.85;;;23.73;;
22030;SDS011;11179;52.106;21.024;2022-12-18T01:57:11;50.88;;;22.60;;
22030;SDS011;11179;52.106;21.024;2022-12-18T01:59:36;47.73;;;21.47;;
22030;SDS011;11179;52.106;21.024;2022-12-18T02:02:06;53.75;;;23.83;;
22030;SDS011;11179;52.106;21.024;2022-12-18T02:04:32;52.55;;;22.95;;
22030;SDS011;11179;52.106;21.024;2022-12-18T02:09:33;47.63;;;21.48;;
22030;SDS011;11179;52.106;21.024;2022-12-18T02:14:53;51.85;;;22.77;;
22030;SDS011;11179;52.106;21.024;2022-12-18T02:20:36;54.03;;;22.92;;
22030;SDS011;11179;52.106;21.024;2022-12-18T02:23:15;50.05;;;23.13;;
22030;SDS011;11179;52.106;21.024;2022-12-18T02:28:45;55.63;;;23.98;;
22030;SDS011;11179;52.106;21.024;2022-12-18T02:31:17;52.78;;;23.15;;
22030;SDS011;11179;52.106;21.024;2022-12-18T02:33:47;51.53;;;22.38;;
22030;SDS011;11179;52.106;21.024;2022-12-18T02:36:15;49.00;;;22.75;;
22030;SDS011;11179;52.106;21.024;2022-12-18T02:38:43;55.42;;;25.08;;
22030;SDS011;11179;52.106;21.024;2022-12-18T02:41:10;57.72;;;24.23;;
22030;SDS011;11179;52.106;21.024;2022-12-18T02:43:38;54.72;;;23.50;;
22030;SDS011;11179;52.106;21.024;2022-12-18T02:48:55;50.38;;;23.38;;
22030;SDS011;11179;52.106;21.024;2022-12-18T02:51:29;49.08;;;22.98;;
22030;SDS011;11179;52.106;21.024;2022-12-18T02:54:08;60.17;;;25.33;;
22030;SDS011;11179;52.106;21.024;2022-12-18T02:56:39;51.78;;;23.13;;
22030;SDS011;11179;52.106;21.024;2022-12-18T02:59:37;60.63;;;24.98;;
22030;SDS011;11179;52.106;21.024;2022-12-18T03:02:07;52.45;;;23.42;;
22030;SDS011;11179;52.106;21.024;2022-12-18T03:04:39;52.53;;;23.08;;
22030;SDS011;11179;52.106;21.024;2022-12-18T03:07:15;53.45;;;24.58;;
22030;SDS011;11179;52.106;21.024;2022-12-18T03:09:46;50.25;;;23.35;;
22030;SDS011;11179;52.106;21.024;2022-12-18T03:12:17;53.55;;;23.13;;
22030;SDS011;11179;52.106;21.024;2022-12-18T03:14:48;52.80;;;24.17;;
22030;SDS011;11179;52.106;21.024;2022-12-18T03:17:19;52.60;;;24.40;;
22030;SDS011;11179;52.106;21.024;2022-12-18T03:19:48;60.88;;;25.50;;
22030;SDS011;11179;52.106;21.024;2022-12-18T03:22:14;56.42;;;24.55;;
22030;SDS011;11179;52.106;21.024;2022-12-18T03:24:41;58.80;;;26.75;;
22030;SDS011;11179;52.106;21.024;2022-12-18T03:27:08;55.03;;;24.13;;
22030;SDS011;11179;52.106;21.024;2022-12-18T03:29:40;57.85;;;24.98;;
22030;SDS011;11179;52.106;21.024;2022-12-18T03:32:11;57.20;;;23.15;;
22030;SDS011;11179;52.106;21.024;2022-12-18T03:34:46;56.50;;;24.90;;
22030;SDS011;11179;52.106;21.024;2022-12-18T03:37:15;57.20;;;23.73;;
22030;SDS011;11179;52.106;21.024;2022-12-18T03:39:40;56.03;;;24.73;;
22030;SDS011;11179;52.106;21.024;2022-12-18T03:44:44;56.03;;;24.23;;
22030;SDS011;11179;52.106;21.024;2022-12-18T03:47:17;51.60;;;22.83;;
22030;SDS011;11179;52.106;21.024;2022-12-18T03:50:07;56.42;;;23.45;;
22030;SDS011;11179;52.106;21.024;2022-12-18T03:55:25;52.03;;;23.55;;
22030;SDS011;11179;52.106;21.024;2022-12-18T03:57:56;52.42;;;24.15;;
22030;SDS011;11179;52.106;21.024;2022-12-18T04:00:22;50.72;;;24.38;;
22030;SDS011;11179;52.106;21.024;2022-12-18T04:02:48;59.27;;;24.87;;
22030;SDS011;11179;52.106;21.024;2022-12-18T04:05:17;53.78;;;23.20;;
22030;SDS011;11179;52.106;21.024;2022-12-18T04:07:44;52.40;;;22.88;;
22030;SDS011;11179;52.106;21.024;2022-12-18T04:10:11;54.55;;;23.45;;
22030;SDS011;11179;52.106;21.024;2022-12-18T04:12:38;46.47;;;22.15;;
22030;SDS011;11179;52.106;21.024;2022-12-18T04:15:04;52.23;;;23.50;;
22030;SDS011;11179;52.106;21.024;2022-12-18T04:17:30;58.63;;;23.75;;
22030;SDS011;11179;52.106;21.024;2022-12-18T04:19:56;55.60;;;23.07;;
22030;SDS011;11179;52.106;21.024;2022-12-18T04:22:21;53.50;;;24.07;;
22030;SDS011;11179;52.106;21.024;2022-12-18T04:24:46;54.37;;;23.50;;
22030;SDS011;11179;52.106;21.024;2022-12-18T04:27:12;51.77;;;22.87;;
22030;SDS011;11179;52.106;21.024;2022-12-18T04:29:37;46.87;;;21.53;;
22030;SDS011;11179;52.106;21.024;2022-12-18T04:32:02;50.83;;;22.80;;
22030;SDS011;11179;52.106;21.024;2022-12-18T04:34:28;57.27;;;24.53;;
22030;SDS011;11179;52.106;21.024;2022-12-18T04:36:53;54.50;;;22.90;;
22030;SDS011;11179;52.106;21.024;2022-12-18T04:39:19;52.70;;;23.63;;
22030;SDS011;11179;52.106;21.024;2022-12-18T04:41:44;47.37;;;20.90;;
22030;SDS011;11179;52.106;21.024;2022-12-18T04:44:09;53.37;;;23.00;;
22030;SDS011;11179;52.106;21.024;2022-12-18T04:46:35;48.70;;;21.50;;
22030;SDS011;11179;52.106;21.024;2022-12-18T04:49:00;49.13;;;21.93;;
22030;SDS011;11179;52.106;21.024;2022-12-18T04:51:26;53.97;;;23.90;;
22030;SDS011;11179;52.106;21.024;2022-12-18T04:53:51;54.37;;;22.83;;
22030;SDS011;11179;52.106;21.024;2022-12-18T04:56:18;52.53;;;22.60;;
22030;SDS011;11179;52.106;21.024;2022-12-18T04:58:44;54.00;;;22.67;;
22030;SDS011;11179;52.106;21.024;2022-12-18T05:01:10;53.47;;;21.93;;
22030;SDS011;11179;52.106;21.024;2022-12-18T05:03:37;49.03;;;23.30;;
22030;SDS011;11179;52.106;21.024;2022-12-18T05:06:03;54.35;;;24.25;;
22030;SDS011;11179;52.106;21.024;2022-12-18T05:08:29;60.25;;;25.55;;
22030;SDS011;11179;52.106;21.024;2022-12-18T05:11:02;52.80;;;23.53;;
22030;SDS011;11179;52.106;21.024;2022-12-18T05:13:30;46.30;;;23.00;;
22030;SDS011;11179;52.106;21.024;2022-12-18T05:15:56;56.55;;;24.40;;
22030;SDS011;11179;52.106;21.024;2022-12-18T05:18:25;52.83;;;24.60;;
22030;SDS011;11179;52.106;21.024;2022-12-18T05:20:51;57.92;;;24.77;;
22030;SDS011;11179;52.106;21.024;2022-12-18T05:23:16;61.15;;;26.63;;
22030;SDS011;11179;52.106;21.024;2022-12-18T05:25:42;65.90;;;26.73;;
22030;SDS011;11179;52.106;21.024;2022-12-18T05:28:07;62.80;;;26.37;;
22030;SDS011;11179;52.106;21.024;2022-12-18T05:30:33;64.80;;;27.90;;
22030;SDS011;11179;52.106;21.024;2022-12-18T05:32:58;59.30;;;26.70;;
22030;SDS011;11179;52.106;21.024;2022-12-18T05:35:24;64.43;;;28.93;;
22030;SDS011;11179;52.106;21.024;2022-12-18T05:37:49;69.30;;;29.47;;
22030;SDS011;11179;52.106;21.024;2022-12-18T05:40:14;59.97;;;26.80;;
22030;SDS011;11179;52.106;21.024;2022-12-18T05:42:40;60.37;;;26.53;;
22030;SDS011;11179;52.106;21.024;2022-12-18T05:45:05;63.13;;;28.20;;
22030;SDS011;11179;52.106;21.024;2022-12-18T05:47:31;60.80;;;26.10;;
22030;SDS011;11179;52.106;21.024;2022-12-18T05:49:57;62.57;;;27.70;;
22030;SDS011;11179;52.106;21.024;2022-12-18T05:52:22;59.13;;;26.00;;
22030;SDS011;11179;52.106;21.024;2022-12-18T05:54:48;64.10;;;26.70;;
22030;SDS011;11179;52.106;21.024;2022-12-18T05:57:13;67.33;;;28.70;;
22030;SDS011;11179;52.106;21.024;2022-12-18T05:59:39;62.53;;;26.40;;
22030;SDS011;11179;52.106;21.024;2022-12-18T06:02:04;62.93;;;27.57;;
22030;SDS011;11179;52.106;21.024;2022-12-18T06:04:29;59.10;;;27.10;;
22030;SDS011;11179;52.106;21.024;2022-12-18T06:06:55;63.93;;;27.80;;
22030;SDS011;11179;52.106;21.024;2022-12-18T06:09:20;64.07;;;25.90;;
22030;SDS011;11179;52.106;21.024;2022-12-18T06:11:46;59.93;;;27.60;;
22030;SDS011;11179;52.106;21.024;2022-12-18T06:14:11;65.90;;;28.53;;
22030;SDS011;11179;52.106;21.024;2022-12-18T06:16:36;63.97;;;27.07;;
22030;SDS011;11179;52.106;21.024;2022-12-18T06:19:04;64.45;;;27.77;;
22030;SDS011;11179;52.106;21.024;2022-12-18T06:21:30;68.60;;;28.98;;
22030;SDS011;11179;52.106;21.024;2022-12-18T06:23:56;63.28;;;27.85;;
22030;SDS011;11179;52.106;21.024;2022-12-18T06:26:22;65.47;;;27.20;;
22030;SDS011;11179;52.106;21.024;2022-12-18T06:28:48;64.93;;;26.23;;
22030;SDS011;11179;52.106;21.024;2022-12-18T06:31:13;61.40;;;27.90;;
22030;SDS011;11179;52.106;21.024;2022-12-18T06:33:39;66.00;;;27.97;;
22030;SDS011;11179;52.106;21.024;2022-12-18T06:36:09;64.03;;;28.40;;
22030;SDS011;11179;52.106;21.024;2022-12-18T06:38:38;63.67;;;26.08;;
22030;SDS011;11179;52.106;21.024;2022-12-18T06:41:06;61.40;;;27.27;;
22030;SDS011;11179;52.106;21.024;2022-12-18T06:43:32;62.42;;;27.30;;
22030;SDS011;11179;52.106;21.024;2022-12-18T06:46:01;59.40;;;26.60;;
22030;SDS011;11179;52.106;21.024;2022-12-18T06:48:27;69.47;;;27.05;;
22030;SDS011;11179;52.106;21.024;2022-12-18T06:50:53;64.70;;;26.27;;
22030;SDS011;11179;52.106;21.024;2022-12-18T06:53:19;69.87;;;29.00;;
22030;SDS011;11179;52.106;21.024;2022-12-18T06:55:44;59.57;;;26.37;;
22030;SDS011;11179;52.106;21.024;2022-12-18T06:58:09;58.40;;;24.57;;
22030;SDS011;11179;52.106;21.024;2022-12-18T07:00:35;56.63;;;25.73;;
22030;SDS011;11179;52.106;21.024;2022-12-18T07:03:00;70.13;;;26.83;;
22030;SDS011;11179;52.106;21.024;2022-12-18T07:05:26;59.03;;;26.20;;
22030;SDS011;11179;52.106;21.024;2022-12-18T07:07:51;65.60;;;27.40;;
22030;SDS011;11179;52.106;21.024;2022-12-18T07:10:17;56.17;;;24.93;;
22030;SDS011;11179;52.106;21.024;2022-12-18T07:12:42;65.73;;;28.27;;
22030;SDS011;11179;52.106;21.024;2022-12-18T07:15:08;66.00;;;27.50;;
22030;SDS011;11179;52.106;21.024;2022-12-18T07:17:33;75.90;;;27.90;;
22030;SDS011;11179;52.106;21.024;2022-12-18T07:19:59;65.50;;;26.70;;
22030;SDS011;11179;52.106;21.024;2022-12-18T07:22:24;59.20;;;26.37;;
22030;SDS011;11179;52.106;21.024;2022-12-18T07:24:50;64.90;;;27.80;;
22030;SDS011;11179;52.106;21.024;2022-12-18T07:27:15;63.73;;;27.33;;
22030;SDS011;11179;52.106;21.024;2022-12-18T07:29:41;63.93;;;27.30;;
22030;SDS011;11179;52.106;21.024;2022-12-18T07:32:06;64.70;;;27.60;;
22030;SDS011;11179;52.106;21.024;2022-12-18T07:34:32;66.57;;;28.20;;
22030;SDS011;11179;52.106;21.024;2022-12-18T07:36:57;71.77;;;29.73;;
22030;SDS011;11179;52.106;21.024;2022-12-18T07:39:23;68.20;;;29.00;;
22030;SDS011;11179;52.106;21.024;2022-12-18T07:41:48;67.00;;;28.90;;
22030;SDS011;11179;52.106;21.024;2022-12-18T07:44:34;66.15;;;30.20;;
22030;SDS011;11179;52.106;21.024;2022-12-18T07:46:59;64.67;;;27.67;;
22030;SDS011;11179;52.106;21.024;2022-12-18T07:49:24;58.23;;;27.53;;
22030;SDS011;11179;52.106;21.024;2022-12-18T07:51:50;64.37;;;27.70;;
22030;SDS011;11179;52.106;21.024;2022-12-18T07:54:15;72.33;;;28.30;;
22030;SDS011;11179;52.106;21.024;2022-12-18T07:56:40;72.67;;;28.63;;
22030;SDS011;11179;52.106;21.024;2022-12-18T07:59:06;63.80;;;26.30;;
22030;SDS011;11179;52.106;21.024;2022-12-18T08:01:32;64.90;;;26.57;;
22030;SDS011;11179;52.106;21.024;2022-12-18T08:03:58;64.38;;;27.58;;
22030;SDS011;11179;52.106;21.024;2022-12-18T08:06:23;65.47;;;26.97;;
22030;SDS011;11179;52.106;21.024;2022-12-18T08:08:50;68.90;;;26.83;;
22030;SDS011;11179;52.106;21.024;2022-12-18T08:11:19;61.20;;;25.75;;
22030;SDS011;11179;52.106;21.024;2022-12-18T08:13:45;70.90;;;28.43;;
22030;SDS011;11179;52.106;21.024;2022-12-18T08:16:10;59.40;;;26.17;;
22030;SDS011;11179;52.106;21.024;2022-12-18T08:18:36;65.97;;;29.10;;
22030;SDS011;11179;52.106;21.024;2022-12-18T08:21:12;65.70;;;26.88;;
22030;SDS011;11179;52.106;21.024;2022-12-18T08:23:40;69.03;;;28.73;;
22030;SDS011;11179;52.106;21.024;2022-12-18T08:26:06;73.55;;;29.13;;
22030;SDS011;11179;52.106;21.024;2022-12-18T08:28:31;64.57;;;28.03;;
22030;SDS011;11179;52.106;21.024;2022-12-18T08:30:57;66.80;;;28.83;;
22030;SDS011;11179;52.106;21.024;2022-12-18T08:33:22;61.97;;;27.10;;
22030;SDS011;11179;52.106;21.024;2022-12-18T08:35:47;64.60;;;27.50;;
22030;SDS011;11179;52.106;21.024;2022-12-18T08:38:13;66.03;;;26.90;;
22030;SDS011;11179;52.106;21.024;2022-12-18T08:40:38;62.60;;;26.17;;
22030;SDS011;11179;52.106;21.024;2022-12-18T08:43:04;61.17;;;24.20;;
22030;SDS011;11179;52.106;21.024;2022-12-18T08:45:48;69.40;;;26.98;;
22030;SDS011;11179;52.106;21.024;2022-12-18T08:48:13;58.37;;;27.33;;
22030;SDS011;11179;52.106;21.024;2022-12-18T08:50:39;67.87;;;28.83;;
22030;SDS011;11179;52.106;21.024;2022-12-18T08:53:04;67.27;;;29.23;;
22030;SDS011;11179;52.106;21.024;2022-12-18T08:55:30;62.90;;;28.47;;
22030;SDS011;11179;52.106;21.024;2022-12-18T08:57:55;58.83;;;26.20;;
22030;SDS011;11179;52.106;21.024;2022-12-18T09:00:20;61.73;;;26.90;;
22030;SDS011;11179;52.106;21.024;2022-12-18T09:02:46;65.60;;;29.17;;
22030;SDS011;11179;52.106;21.024;2022-12-18T09:05:11;66.07;;;27.70;;
22030;SDS011;11179;52.106;21.024;2022-12-18T09:07:37;74.63;;;28.10;;
22030;SDS011;11179;52.106;21.024;2022-12-18T09:10:02;65.07;;;28.13;;
22030;SDS011;11179;52.106;21.024;2022-12-18T09:12:28;63.10;;;26.03;;
22030;SDS011;11179;52.106;21.024;2022-12-18T09:14:53;73.40;;;30.90;;
22030;SDS011;11179;52.106;21.024;2022-12-18T09:17:19;87.87;;;36.17;;
22030;SDS011;11179;52.106;21.024;2022-12-18T09:19:44;82.83;;;33.27;;
22030;SDS011;11179;52.106;21.024;2022-12-18T09:22:09;79.13;;;32.57;;
22030;SDS011;11179;52.106;21.024;2022-12-18T09:24:35;76.67;;;32.27;;
22030;SDS011;11179;52.106;21.024;2022-12-18T09:27:00;75.23;;;31.70;;
22030;SDS011;11179;52.106;21.024;2022-12-18T09:29:26;78.67;;;30.90;;
22030;SDS011;11179;52.106;21.024;2022-12-18T09:31:51;67.67;;;29.70;;
22030;SDS011;11179;52.106;21.024;2022-12-18T09:34:16;70.17;;;30.87;;
22030;SDS011;11179;52.106;21.024;2022-12-18T09:36:42;65.13;;;27.63;;
22030;SDS011;11179;52.106;21.024;2022-12-18T09:39:08;70.70;;;27.10;;
22030;SDS011;11179;52.106;21.024;2022-12-18T09:46:46;77.57;;;33.33;;
22030;SDS011;11179;52.106;21.024;2022-12-18T09:49:18;76.43;;;33.63;;
22030;SDS011;11179;52.106;21.024;2022-12-18T09:54:26;81.55;;;34.05;;
22030;SDS011;11179;52.106;21.024;2022-12-18T09:56:57;70.65;;;29.83;;
22030;SDS011;11179;52.106;21.024;2022-12-18T09:59:34;72.27;;;30.43;;
22030;SDS011;11179;52.106;21.024;2022-12-18T10:02:18;71.65;;;29.38;;
22030;SDS011;11179;52.106;21.024;2022-12-18T10:04:55;74.50;;;32.13;;
22030;SDS011;11179;52.106;21.024;2022-12-18T10:08:16;77.45;;;33.45;;
22030;SDS011;11179;52.106;21.024;2022-12-18T10:12:59;74.70;;;32.90;;
22030;SDS011;11179;52.106;21.024;2022-12-18T10:15:33;73.93;;;32.33;;
22030;SDS011;11179;52.106;21.024;2022-12-18T10:20:46;82.10;;;31.33;;
22030;SDS011;11179;52.106;21.024;2022-12-18T10:24:02;80.80;;;32.80;;
22030;SDS011;11179;52.106;21.024;2022-12-18T10:26:25;75.68;;;29.17;;
22030;SDS011;11179;52.106;21.024;2022-12-18T10:28:50;79.17;;;30.30;;
22030;SDS011;11179;52.106;21.024;2022-12-18T10:31:19;78.43;;;29.90;;
22030;SDS011;11179;52.106;21.024;2022-12-18T10:33:47;73.03;;;29.90;;
22030;SDS011;11179;52.106;21.024;2022-12-18T10:36:12;78.63;;;31.70;;
22030;SDS011;11179;52.106;21.024;2022-12-18T10:38:38;80.77;;;34.50;;
22030;SDS011;11179;52.106;21.024;2022-12-18T10:41:23;68.93;;;28.70;;
22030;SDS011;11179;52.106;21.024;2022-12-18T10:44:12;78.68;;;30.63;;
22030;SDS011;11179;52.106;21.024;2022-12-18T10:46:39;83.72;;;32.78;;
22030;SDS011;11179;52.106;21.024;2022-12-18T10:49:07;78.80;;;29.60;;
22030;SDS011;11179;52.106;21.024;2022-12-18T10:51:44;74.88;;;29.83;;
22030;SDS011;11179;52.106;21.024;2022-12-18T10:54:17;73.33;;;30.80;;
22030;SDS011;11179;52.106;21.024;2022-12-18T10:56:45;82.25;;;34.60;;
22030;SDS011;11179;52.106;21.024;2022-12-18T10:59:12;84.93;;;32.57;;
22030;SDS011;11179;52.106;21.024;2022-12-18T11:04:14;73.90;;;27.65;;
22030;SDS011;11179;52.106;21.024;2022-12-18T11:06:58;77.38;;;30.33;;
22030;SDS011;11179;52.106;21.024;2022-12-18T11:09:25;76.45;;;29.98;;
22030;SDS011;11179;52.106;21.024;2022-12-18T11:11:53;70.32;;;26.98;;
22030;SDS011;11179;52.106;21.024;2022-12-18T11:14:29;64.35;;;25.77;;
22030;SDS011;11179;52.106;21.024;2022-12-18T11:16:58;66.10;;;28.80;;
22030;SDS011;11179;52.106;21.024;2022-12-18T11:19:33;64.97;;;28.77;;
22030;SDS011;11179;52.106;21.024;2022-12-18T11:22:01;78.00;;;30.55;;
22030;SDS011;11179;52.106;21.024;2022-12-18T11:24:49;70.32;;;29.15;;
22030;SDS011;11179;52.106;21.024;2022-12-18T11:27:20;75.18;;;27.58;;
22030;SDS011;11179;52.106;21.024;2022-12-18T11:29:46;66.30;;;26.47;;
22030;SDS011;11179;52.106;21.024;2022-12-18T11:32:35;82.65;;;27.65;;
22030;SDS011;11179;52.106;21.024;2022-12-18T11:37:35;71.80;;;28.98;;
22030;SDS011;11179;52.106;21.024;2022-12-18T11:40:03;68.80;;;26.43;;
22030;SDS011;11179;52.106;21.024;2022-12-18T11:42:54;64.80;;;26.98;;
22030;SDS011;11179;52.106;21.024;2022-12-18T11:45:33;64.05;;;27.50;;
22030;SDS011;11179;52.106;21.024;2022-12-18T11:48:06;67.82;;;26.60;;
22030;SDS011;11179;52.106;21.024;2022-12-18T11:50:46;60.58;;;24.83;;
22030;SDS011;11179;52.106;21.024;2022-12-18T11:53:12;61.25;;;24.83;;
22030;SDS011;11179;52.106;21.024;2022-12-18T12:00:58;63.70;;;26.17;;
22030;SDS011;11179;52.106;21.024;2022-12-18T12:17:24;78.78;;;30.48;;
22030;SDS011;11179;52.106;21.024;2022-12-18T12:19:56;96.22;;;38.53;;
22030;SDS011;11179;52.106;21.024;2022-12-18T12:30:18;61.38;;;24.98;;
22030;SDS011;11179;52.106;21.024;2022-12-18T12:32:53;68.95;;;26.35;;
22030;SDS011;11179;52.106;21.024;2022-12-18T12:38:01;64.82;;;25.83;;
22030;SDS011;11179;52.106;21.024;2022-12-18T12:40:35;65.90;;;27.10;;
22030;SDS011;11179;52.106;21.024;2022-12-18T12:43:16;70.40;;;29.38;;
22030;SDS011;11179;52.106;21.024;2022-12-18T12:46:11;70.65;;;27.35;;
22030;SDS011;11179;52.106;21.024;2022-12-18T12:48:46;68.85;;;26.98;;
22030;SDS011;11179;52.106;21.024;2022-12-18T12:51:19;91.97;;;34.90;;
22030;SDS011;11179;52.106;21.024;2022-12-18T12:53:47;78.78;;;33.15;;
22030;SDS011;11179;52.106;21.024;2022-12-18T12:56:14;69.45;;;28.42;;
22030;SDS011;11179;52.106;21.024;2022-12-18T13:04:15;70.03;;;28.23;;
22030;SDS011;11179;52.106;21.024;2022-12-18T13:06:54;76.47;;;30.38;;
22030;SDS011;11179;52.106;21.024;2022-12-18T13:18:25;71.20;;;29.80;;
22030;SDS011;11179;52.106;21.024;2022-12-18T13:20:53;64.10;;;27.40;;
22030;SDS011;11179;52.106;21.024;2022-12-18T13:31:15;66.75;;;26.60;;
22030;SDS011;11179;52.106;21.024;2022-12-18T13:34:16;65.80;;;25.77;;
22030;SDS011;11179;52.106;21.024;2022-12-18T13:36:44;69.15;;;25.02;;
22030;SDS011;11179;52.106;21.024;2022-12-18T13:41:38;69.75;;;28.65;;
22030;SDS011;11179;52.106;21.024;2022-12-18T13:44:12;66.30;;;28.00;;
22030;SDS011;11179;52.106;21.024;2022-12-18T13:46:47;71.32;;;30.58;;
22030;SDS011;11179;52.106;21.024;2022-12-18T13:49:23;66.30;;;28.63;;
22030;SDS011;11179;52.106;21.024;2022-12-18T13:51:52;77.72;;;34.25;;
22030;SDS011;11179;52.106;21.024;2022-12-18T13:54:28;78.43;;;34.30;;
22030;SDS011;11179;52.106;21.024;2022-12-18T13:56:54;79.90;;;32.03;;
22030;SDS011;11179;52.106;21.024;2022-12-18T13:59:24;79.53;;;34.23;;
22030;SDS011;11179;52.106;21.024;2022-12-18T14:01:58;70.78;;;30.92;;
22030;SDS011;11179;52.106;21.024;2022-12-18T14:04:33;71.72;;;29.77;;
22030;SDS011;11179;52.106;21.024;2022-12-18T14:07:16;69.15;;;32.50;;
22030;SDS011;11179;52.106;21.024;2022-12-18T14:09:49;75.85;;;33.83;;
22030;SDS011;11179;52.106;21.024;2022-12-18T14:18:09;91.30;;;37.38;;
22030;SDS011;11179;52.106;21.024;2022-12-18T14:20:50;75.82;;;31.50;;
22030;SDS011;11179;52.106;21.024;2022-12-18T14:23:28;83.13;;;36.13;;
22030;SDS011;11179;52.106;21.024;2022-12-18T14:25:54;71.82;;;33.70;;
22030;SDS011;11179;52.106;21.024;2022-12-18T14:28:19;68.27;;;29.40;;
22030;SDS011;11179;52.106;21.024;2022-12-18T14:30:46;74.85;;;32.05;;
22030;SDS011;11179;52.106;21.024;2022-12-18T14:33:30;66.80;;;26.50;;
22030;SDS011;11179;52.106;21.024;2022-12-18T14:35:59;68.18;;;28.38;;
22030;SDS011;11179;52.106;21.024;2022-12-18T14:38:35;61.38;;;27.63;;
22030;SDS011;11179;52.106;21.024;2022-12-18T14:41:03;67.25;;;27.83;;
22030;SDS011;11179;52.106;21.024;2022-12-18T14:43:34;57.47;;;24.73;;
22030;SDS011;11179;52.106;21.024;2022-12-18T14:46:01;70.18;;;28.88;;
22030;SDS011;11179;52.106;21.024;2022-12-18T14:48:35;69.57;;;26.92;;
22030;SDS011;11179;52.106;21.024;2022-12-18T14:56:46;62.53;;;27.85;;
22030;SDS011;11179;52.106;21.024;2022-12-18T14:59:23;66.25;;;28.15;;
22030;SDS011;11179;52.106;21.024;2022-12-18T15:04:29;67.10;;;27.15;;
22030;SDS011;11179;52.106;21.024;2022-12-18T15:07:03;72.55;;;30.48;;
22030;SDS011;11179;52.106;21.024;2022-12-18T15:10:00;66.10;;;30.17;;
22030;SDS011;11179;52.106;21.024;2022-12-18T15:12:37;64.78;;;29.73;;
22030;SDS011;11179;52.106;21.024;2022-12-18T15:15:41;65.95;;;30.10;;
22030;SDS011;11179;52.106;21.024;2022-12-18T15:23:20;66.05;;;28.65;;
22030;SDS011;11179;52.106;21.024;2022-12-18T15:25:46;58.45;;;24.83;;
22030;SDS011;11179;52.106;21.024;2022-12-18T15:28:23;59.58;;;24.23;;
22030;SDS011;11179;52.106;21.024;2022-12-18T15:30:59;48.55;;;20.50;;
22030;SDS011;11179;52.106;21.024;2022-12-18T15:33:26;50.60;;;23.08;;
22030;SDS011;11179;52.106;21.024;2022-12-18T15:36:02;58.30;;;25.25;;
22030;SDS011;11179;52.106;21.024;2022-12-18T15:38:30;62.72;;;25.73;;
22030;SDS011;11179;52.106;21.024;2022-12-18T15:40:56;63.25;;;25.40;;
22030;SDS011;11179;52.106;21.024;2022-12-18T15:43:22;59.10;;;26.97;;
22030;SDS011;11179;52.106;21.024;2022-12-18T15:48:31;67.00;;;27.70;;
22030;SDS011;11179;52.106;21.024;2022-12-18T15:50:59;57.13;;;25.40;;
22030;SDS011;11179;52.106;21.024;2022-12-18T15:53:25;57.92;;;24.50;;
22030;SDS011;11179;52.106;21.024;2022-12-18T15:55:55;60.30;;;28.38;;
22030;SDS011;11179;52.106;21.024;2022-12-18T15:58:39;57.58;;;26.10;;
22030;SDS011;11179;52.106;21.024;2022-12-18T16:01:05;56.20;;;25.77;;
22030;SDS011;11179;52.106;21.024;2022-12-18T16:03:32;70.20;;;29.25;;
22030;SDS011;11179;52.106;21.024;2022-12-18T16:05:57;59.30;;;27.63;;
22030;SDS011;11179;52.106;21.024;2022-12-18T16:08:25;63.28;;;27.15;;
22030;SDS011;11179;52.106;21.024;2022-12-18T16:10:50;66.73;;;30.30;;
22030;SDS011;11179;52.106;21.024;2022-12-18T16:13:15;69.70;;;30.27;;
22030;SDS011;11179;52.106;21.024;2022-12-18T16:15:45;66.35;;;28.73;;
22030;SDS011;11179;52.106;21.024;2022-12-18T16:18:10;60.50;;;28.43;;
22030;SDS011;11179;52.106;21.024;2022-12-18T16:20:35;62.90;;;28.17;;
22030;SDS011;11179;52.106;21.024;2022-12-18T16:23:01;72.37;;;31.83;;